Time;durP1;ratioP1;P1;durP2;ratioP2;P2;SDS_P1;SDS_P2;PMS_P1;PMS_P2;Temp;Humidity;BMP_temperature;BMP_pressure;BME280_temperature;BME280_humidity;BME280_pressure;Samples;Min_cycle;Max_cycle;Signal;HPM_P1;HPM_P2
2022/07/26 00:00:15;;;;;;;3.80;2.77;;;30.40;38.60;;;;;;5026878;28;20256;-45
2022/07/26 00:02:41;;;;;;;3.30;3.00;;;30.30;38.70;;;;;;5027552;28;20657;-45
2022/07/26 00:05:07;;;;;;;5.33;3.13;;;30.30;38.70;;;;;;5026475;28;20455;-44
2022/07/26 00:07:33;;;;;;;5.30;2.50;;;30.30;38.50;;;;;;5026943;28;20205;-47
2022/07/26 00:09:58;;;;;;;5.63;2.90;;;30.30;38.60;;;;;;5024597;28;20480;-46
2022/07/26 00:12:24;;;;;;;4.00;2.93;;;30.30;38.70;;;;;;5027662;28;20286;-47
2022/07/26 00:14:50;;;;;;;3.17;2.47;;;30.20;38.70;;;;;;5019920;28;20201;-45
2022/07/26 00:17:15;;;;;;;3.80;2.50;;;30.20;38.90;;;;;;5028257;28;20189;-45
2022/07/26 00:19:41;;;;;;;7.63;2.67;;;30.20;39.10;;;;;;5025315;28;20651;-47
2022/07/26 00:24:51;;;;;;;3.83;2.57;;;30.10;39.40;;;;;;5024267;28;20255;-48
2022/07/26 00:27:17;;;;;;;2.53;2.33;;;30.10;39.60;;;;;;5026088;28;22052;-48
2022/07/26 00:29:42;;;;;;;5.77;2.70;;;30.10;39.50;;;;;;5013336;28;20198;-44
2022/07/26 00:32:08;;;;;;;3.07;2.77;;;30.10;39.40;;;;;;5021618;28;20231;-44
2022/07/26 00:34:34;;;;;;;3.07;2.83;;;30.00;39.40;;;;;;5023465;28;20661;-43
2022/07/26 00:37:00;;;;;;;3.63;2.50;;;30.00;39.60;;;;;;5020024;28;20229;-45
2022/07/26 00:39:25;;;;;;;5.40;2.50;;;30.00;39.60;;;;;;5023106;28;20799;-44
2022/07/26 00:41:51;;;;;;;2.40;2.20;;;30.00;39.60;;;;;;5013633;28;20472;-48
2022/07/26 00:44:17;;;;;;;4.40;2.47;;;30.00;39.60;;;;;;5027163;28;20280;-44
2022/07/26 00:46:43;;;;;;;2.80;2.40;;;30.00;39.70;;;;;;5026635;28;20221;-44
2022/07/26 00:49:09;;;;;;;6.33;2.80;;;30.00;39.80;;;;;;5012709;28;20199;-44
2022/07/26 00:51:35;;;;;;;2.83;2.40;;;30.00;39.80;;;;;;5025193;28;20473;-44
2022/07/26 00:54:01;;;;;;;6.43;2.50;;;30.00;39.80;;;;;;5026524;28;20599;-44
2022/07/26 00:56:27;;;;;;;3.27;2.63;;;30.00;39.90;;;;;;5028263;28;20197;-44
2022/07/26 00:58:52;;;;;;;3.10;2.30;;;29.90;39.70;;;;;;5016157;28;20462;-44
2022/07/26 01:01:18;;;;;;;4.97;2.67;;;29.90;39.60;;;;;;5052843;28;20653;-44
2022/07/26 01:03:44;;;;;;;4.60;2.43;;;29.90;39.70;;;;;;5025825;28;20205;-45
2022/07/26 01:06:10;;;;;;;2.20;2.10;;;29.90;39.90;;;;;;5028156;28;20196;-45
2022/07/26 01:08:36;;;;;;;7.30;2.10;;;29.80;40.00;;;;;;5025387;28;20201;-43
2022/07/26 01:11:01;;;;;;;3.43;2.27;;;29.80;40.20;;;;;;5022178;28;20478;-45
2022/07/26 01:13:27;;;;;;;4.00;2.67;;;29.80;40.20;;;;;;5016758;28;20225;-44
2022/07/26 01:15:53;;;;;;;2.43;2.07;;;29.80;40.30;;;;;;5021191;28;20202;-44
2022/07/26 01:18:19;;;;;;;2.00;1.87;;;29.80;40.40;;;;;;5014591;28;20201;-45
2022/07/26 01:20:45;;;;;;;3.10;2.57;;;29.80;40.50;;;;;;5022910;28;20298;-48
2022/07/26 01:23:11;;;;;;;4.10;2.53;;;29.40;41.40;;;;;;5058835;28;20197;-44
2022/07/26 01:25:38;;;;;;;6.10;2.43;;;28.90;43.90;;;;;;5017365;28;21219;-45
2022/07/26 01:28:04;;;;;;;4.13;2.10;;;28.70;48.20;;;;;;5022938;28;20641;-44
2022/07/26 01:30:29;;;;;;;2.47;2.27;;;28.20;49.80;;;;;;5025897;28;20440;-46
2022/07/26 01:32:55;;;;;;;4.97;2.20;;;28.00;50.70;;;;;;5020450;28;20275;-45
2022/07/26 01:35:21;;;;;;;2.50;2.30;;;27.90;50.50;;;;;;5022054;28;20200;-47
2022/07/26 01:37:47;;;;;;;3.70;2.33;;;27.20;55.20;;;;;;5024371;28;20233;-48
2022/07/26 01:40:13;;;;;;;3.40;2.60;;;26.30;57.60;;;;;;5016727;28;20221;-46
2022/07/26 01:42:39;;;;;;;2.83;2.30;;;26.00;58.80;;;;;;5022872;28;20344;-46
2022/07/26 01:45:07;;;;;;;2.13;2.00;;;26.10;59.00;;;;;;5012158;28;20201;-48
2022/07/26 01:47:33;;;;;;;2.63;2.07;;;26.10;59.30;;;;;;5019159;28;20544;-46
2022/07/26 01:49:58;;;;;;;1.90;1.80;;;26.30;59.20;;;;;;5019698;28;21070;-45
2022/07/26 01:52:26;;;;;;;2.20;2.00;;;26.30;59.30;;;;;;5024638;28;20226;-46
2022/07/26 01:54:51;;;;;;;3.43;2.23;;;26.30;59.20;;;;;;5021994;28;20194;-46
2022/07/26 01:57:17;;;;;;;2.83;2.30;;;26.50;57.40;;;;;;5021882;28;20439;-46
2022/07/26 01:59:43;;;;;;;2.20;2.10;;;26.70;56.60;;;;;;5026005;28;20224;-48
2022/07/26 02:02:08;;;;;;;3.43;2.57;;;27.00;56.20;;;;;;5015344;28;20579;-47
2022/07/26 02:07:18;;;;;;;2.93;2.20;;;27.10;55.20;;;;;;5025843;28;20698;-46
2022/07/26 02:09:44;;;;;;;2.50;2.30;;;27.00;54.50;;;;;;5025073;28;20447;-47
2022/07/26 02:12:10;;;;;;;4.50;2.73;;;26.90;53.90;;;;;;5030702;28;20201;-51
2022/07/26 02:14:36;;;;;;;2.40;2.10;;;27.00;54.20;;;;;;5028808;28;20251;-47
2022/07/26 02:17:01;;;;;;;4.57;2.23;;;27.20;54.90;;;;;;5025843;28;20194;-46
2022/07/26 02:19:28;;;;;;;6.27;2.23;;;27.30;54.10;;;;;;5023880;28;20483;-45
2022/07/26 02:21:54;;;;;;;7.40;2.27;;;27.40;53.90;;;;;;5018214;28;20281;-46
2022/07/26 02:24:19;;;;;;;2.60;2.40;;;27.50;53.90;;;;;;5026288;28;20447;-47
2022/07/26 02:26:45;;;;;;;2.17;1.90;;;27.60;54.40;;;;;;5022416;28;20231;-46
2022/07/26 02:29:10;;;;;;;2.40;2.20;;;27.60;53.70;;;;;;5023378;28;20248;-46
2022/07/26 02:31:36;;;;;;;2.50;2.30;;;27.70;53.60;;;;;;5025323;28;20243;-45
2022/07/26 02:34:02;;;;;;;2.70;2.50;;;27.60;53.50;;;;;;5017658;28;20690;-46
2022/07/26 02:36:27;;;;;;;2.90;2.07;;;27.60;53.40;;;;;;5026976;28;20229;-47
2022/07/26 02:38:53;;;;;;;2.47;2.20;;;27.70;53.50;;;;;;5029494;28;20193;-46
2022/07/26 02:41:18;;;;;;;3.33;2.20;;;27.70;53.50;;;;;;5030267;28;20201;-50
2022/07/26 02:43:44;;;;;;;2.57;2.00;;;27.70;53.00;;;;;;5018047;28;20604;-46
2022/07/26 02:46:10;;;;;;;3.63;2.57;;;27.80;52.60;;;;;;5024336;28;20675;-46
2022/07/26 02:48:35;;;;;;;2.40;2.17;;;27.90;52.40;;;;;;5029765;28;20204;-46
2022/07/26 02:51:01;;;;;;;2.23;2.03;;;28.00;52.10;;;;;;5026039;28;20304;-48
2022/07/26 02:53:27;;;;;;;3.73;2.23;;;28.00;52.20;;;;;;5023768;28;20229;-47
2022/07/26 02:55:52;;;;;;;2.60;2.40;;;28.10;52.00;;;;;;5031406;28;20566;-46
2022/07/26 02:58:20;;;;;;;2.43;2.23;;;28.10;51.80;;;;;;5026761;28;20194;-45
2022/07/26 03:00:46;;;;;;;2.30;2.10;;;28.10;51.80;;;;;;5027443;28;20240;-46
2022/07/26 03:03:13;;;;;;;3.27;2.07;;;28.20;51.70;;;;;;5030353;28;20452;-46
2022/07/26 03:05:39;;;;;;;3.00;2.37;;;28.30;51.50;;;;;;5030978;28;20446;-46
2022/07/26 03:08:05;;;;;;;3.53;2.60;;;28.40;51.30;;;;;;5027446;28;20452;-46
2022/07/26 03:10:31;;;;;;;5.50;2.70;;;28.40;51.50;;;;;;5028841;28;20447;-45
2022/07/26 03:12:57;;;;;;;3.60;2.30;;;28.40;51.70;;;;;;5027991;28;20440;-47
2022/07/26 03:15:23;;;;;;;2.63;2.40;;;28.40;51.70;;;;;;5026658;28;20236;-49
2022/07/26 03:17:48;;;;;;;2.33;2.10;;;28.40;51.70;;;;;;5026243;28;20943;-46
2022/07/26 03:20:14;;;;;;;2.70;2.50;;;28.40;51.70;;;;;;5019259;28;20263;-45
2022/07/26 03:22:40;;;;;;;2.20;2.00;;;28.40;51.60;;;;;;5029186;28;20197;-46
2022/07/26 03:25:06;;;;;;;2.70;2.40;;;28.40;51.60;;;;;;5027854;28;20197;-47
2022/07/26 03:27:32;;;;;;;2.30;2.20;;;28.40;51.50;;;;;;5027018;28;20213;-46
2022/07/26 03:29:58;;;;;;;9.13;2.60;;;28.40;51.50;;;;;;5025789;28;20668;-46
2022/07/26 03:32:23;;;;;;;2.50;2.30;;;28.40;51.50;;;;;;5024187;28;20440;-45
2022/07/26 03:34:49;;;;;;;3.50;2.37;;;28.40;51.60;;;;;;5019784;28;20444;-46
2022/07/26 03:37:15;;;;;;;2.20;2.00;;;28.30;51.40;;;;;;5026369;28;20233;-46
2022/07/26 03:39:41;;;;;;;2.70;2.40;;;28.30;51.30;;;;;;5024894;28;20224;-46
2022/07/26 03:42:07;;;;;;;3.07;2.40;;;28.30;51.50;;;;;;5027170;28;20451;-46
2022/07/26 03:44:32;;;;;;;2.37;2.17;;;28.20;51.60;;;;;;5023280;28;20645;-45
2022/07/26 03:46:58;;;;;;;2.20;2.00;;;28.30;51.50;;;;;;5019421;28;20276;-45
2022/07/26 03:49:24;;;;;;;3.20;2.90;;;28.30;51.50;;;;;;5024203;28;20228;-45
2022/07/26 03:51:50;;;;;;;2.20;2.10;;;28.30;51.40;;;;;;5006288;28;20667;-45
2022/07/26 03:54:15;;;;;;;4.83;2.20;;;28.30;51.70;;;;;;5023485;28;20471;-46
2022/07/26 03:56:41;;;;;;;2.40;2.20;;;28.30;51.40;;;;;;5030725;28;20219;-46
2022/07/26 03:59:09;;;;;;;2.70;2.37;;;28.30;51.40;;;;;;5021149;28;20233;-46
2022/07/26 04:01:40;;;;;;;2.40;2.20;;;28.30;51.50;;;;;;5023815;28;20209;-45
2022/07/26 04:04:09;;;;;;;4.03;2.23;;;28.20;51.40;;;;;;5026446;28;20483;-45
2022/07/26 04:06:35;;;;;;;3.33;2.40;;;28.30;51.30;;;;;;5025833;28;20510;-46
2022/07/26 04:09:02;;;;;;;2.23;2.13;;;28.30;51.30;;;;;;5017330;28;20441;-45
2022/07/26 04:11:27;;;;;;;2.30;2.10;;;28.20;51.20;;;;;;5026440;28;20538;-47
2022/07/26 04:13:53;;;;;;;2.50;2.30;;;28.20;51.10;;;;;;5028071;28;20531;-45
2022/07/26 04:16:19;;;;;;;2.40;2.20;;;28.20;51.10;;;;;;5026306;28;20300;-47
2022/07/26 04:18:44;;;;;;;3.00;2.17;;;28.10;51.40;;;;;;5021013;28;20566;-45
2022/07/26 04:21:10;;;;;;;3.23;2.93;;;28.00;51.40;;;;;;5029004;28;20739;-47
2022/07/26 04:23:35;;;;;;;2.53;2.33;;;27.90;51.70;;;;;;5022271;28;20654;-45
2022/07/26 04:26:02;;;;;;;2.70;2.50;;;27.80;52.10;;;;;;5013618;28;20228;-48
2022/07/26 04:28:28;;;;;;;2.87;2.60;;;27.60;52.50;;;;;;5016848;28;21272;-45
2022/07/26 04:30:54;;;;;;;3.23;2.20;;;27.70;52.70;;;;;;5028538;28;20480;-45
2022/07/26 04:33:20;;;;;;;4.10;2.20;;;27.70;52.40;;;;;;5024670;28;20637;-46
2022/07/26 04:35:46;;;;;;;3.93;2.20;;;27.80;52.10;;;;;;5023392;28;20455;-45
2022/07/26 04:38:12;;;;;;;2.37;2.17;;;27.80;52.00;;;;;;5023721;28;20185;-45
2022/07/26 04:40:37;;;;;;;2.33;2.13;;;27.90;52.10;;;;;;5026181;28;20220;-46
2022/07/26 04:43:03;;;;;;;2.40;2.20;;;28.00;51.80;;;;;;5025697;28;20197;-45
2022/07/26 04:45:29;;;;;;;2.40;2.00;;;28.00;51.80;;;;;;5026731;28;20284;-45
2022/07/26 04:47:55;;;;;;;2.33;2.20;;;28.10;51.70;;;;;;5016769;28;20436;-46
2022/07/26 04:50:22;;;;;;;2.37;2.17;;;28.10;51.60;;;;;;5025917;28;20503;-47
2022/07/26 04:52:49;;;;;;;2.33;2.03;;;28.10;51.50;;;;;;5027077;28;20436;-46
2022/07/26 04:55:15;;;;;;;2.43;2.10;;;28.10;51.40;;;;;;5024846;28;20455;-46
2022/07/26 04:57:41;;;;;;;2.33;2.13;;;28.10;51.40;;;;;;5017291;28;20524;-45
2022/07/26 05:00:09;;;;;;;2.93;2.37;;;28.10;51.40;;;;;;5018889;28;20475;-45
2022/07/26 05:02:35;;;;;;;2.10;2.00;;;28.10;51.30;;;;;;5026969;28;20432;-45
2022/07/26 05:05:01;;;;;;;2.53;2.33;;;28.10;51.30;;;;;;5020241;28;20525;-45
2022/07/26 05:07:27;;;;;;;3.90;3.07;;;28.20;51.40;;;;;;5021898;28;20193;-46
2022/07/26 05:09:52;;;;;;;2.27;2.17;;;28.20;51.30;;;;;;5023980;28;20189;-47
2022/07/26 05:12:18;;;;;;;2.10;1.90;;;28.20;51.30;;;;;;5024889;28;20240;-45
2022/07/26 05:14:44;;;;;;;2.97;2.30;;;28.20;51.50;;;;;;5023774;28;20237;-45
2022/07/26 05:17:10;;;;;;;2.90;2.60;;;28.20;51.40;;;;;;5025089;28;20548;-46
2022/07/26 05:19:36;;;;;;;6.13;2.30;;;28.30;51.50;;;;;;5025445;28;20229;-46
2022/07/26 05:22:02;;;;;;;2.23;1.90;;;28.40;52.10;;;;;;5024150;28;20622;-46
2022/07/26 05:24:27;;;;;;;2.77;2.53;;;28.40;51.40;;;;;;5022116;28;20535;-50
2022/07/26 05:26:53;;;;;;;2.97;2.30;;;28.40;51.30;;;;;;5030085;28;20280;-49
2022/07/26 05:29:18;;;;;;;2.87;2.00;;;28.40;51.40;;;;;;5024848;28;20209;-48
2022/07/26 05:31:44;;;;;;;2.33;2.13;;;28.40;51.30;;;;;;5020848;28;20197;-49
2022/07/26 05:34:09;;;;;;;2.50;2.30;;;28.40;51.50;;;;;;5020564;28;20201;-47
2022/07/26 05:36:35;;;;;;;3.23;2.10;;;28.40;51.60;;;;;;5024437;28;20232;-45
2022/07/26 05:39:01;;;;;;;2.43;2.23;;;28.40;51.60;;;;;;5030012;28;20192;-46
2022/07/26 05:41:26;;;;;;;3.63;2.50;;;28.50;51.60;;;;;;5030155;28;20304;-46
2022/07/26 05:43:52;;;;;;;2.10;2.00;;;28.40;51.60;;;;;;5031915;28;20230;-49
2022/07/26 05:46:18;;;;;;;2.40;2.10;;;28.50;51.60;;;;;;5027446;28;20206;-46
2022/07/26 05:48:44;;;;;;;2.60;2.07;;;28.50;51.60;;;;;;5033381;28;20569;-49
2022/07/26 05:51:10;;;;;;;2.50;2.30;;;28.60;51.40;;;;;;5032272;28;20225;-49
2022/07/26 05:53:36;;;;;;;2.93;2.63;;;28.60;50.90;;;;;;5027935;28;20193;-46
2022/07/26 05:56:01;;;;;;;2.67;2.30;;;28.50;50.90;;;;;;5030059;28;20526;-46
2022/07/26 05:58:27;;;;;;;2.63;2.43;;;28.40;51.00;;;;;;5032389;28;20526;-47
2022/07/26 06:00:53;;;;;;;4.30;2.60;;;28.40;51.00;;;;;;5027894;28;20225;-47
2022/07/26 06:03:21;;;;;;;2.50;2.13;;;28.30;51.10;;;;;;5032728;28;20251;-46
2022/07/26 06:05:49;;;;;;;4.00;2.60;;;28.30;51.50;;;;;;5032838;28;20209;-47
2022/07/26 06:08:15;;;;;;;4.07;2.37;;;28.40;51.10;;;;;;5032404;28;20451;-44
2022/07/26 06:10:40;;;;;;;2.77;2.50;;;28.40;51.00;;;;;;5031281;28;20439;-47
2022/07/26 06:13:06;;;;;;;2.10;1.93;;;28.50;51.00;;;;;;5030412;28;20255;-44
2022/07/26 06:15:31;;;;;;;4.63;2.20;;;28.50;50.80;;;;;;5026608;28;20205;-43
2022/07/26 06:17:57;;;;;;;2.63;2.37;;;28.50;50.50;;;;;;5034851;28;20681;-46
2022/07/26 06:20:23;;;;;;;4.47;2.93;;;28.60;50.30;;;;;;5034418;28;20233;-47
2022/07/26 06:22:50;;;;;;;2.57;2.37;;;28.60;50.10;;;;;;5029002;28;20204;-43
2022/07/26 06:25:16;;;;;;;2.80;2.47;;;28.60;49.80;;;;;;5035408;28;20243;-47
2022/07/26 06:27:41;;;;;;;4.43;2.10;;;28.70;49.70;;;;;;5020407;28;20444;-44
2022/07/26 06:30:08;;;;;;;5.27;2.40;;;28.70;49.50;;;;;;5028119;28;20676;-44
2022/07/26 06:32:33;;;;;;;4.07;2.97;;;28.70;49.40;;;;;;5032879;28;20701;-43
2022/07/26 06:34:59;;;;;;;2.63;2.40;;;28.70;49.40;;;;;;5029416;28;20501;-42
2022/07/26 06:37:25;;;;;;;4.10;3.20;;;28.70;49.40;;;;;;5030204;28;20229;-43
2022/07/26 06:39:51;;;;;;;3.57;2.60;;;28.80;49.40;;;;;;5030249;28;20316;-44
2022/07/26 06:42:16;;;;;;;2.13;1.97;;;28.80;49.40;;;;;;5032228;28;20199;-43
2022/07/26 06:44:42;;;;;;;2.47;2.27;;;28.90;49.10;;;;;;5030155;28;20200;-45
2022/07/26 06:47:08;;;;;;;2.90;2.10;;;28.90;49.20;;;;;;5030045;28;20193;-43
2022/07/26 06:49:33;;;;;;;2.50;2.13;;;29.00;49.00;;;;;;5037803;28;20193;-44
2022/07/26 06:51:59;;;;;;;3.93;3.20;;;29.00;49.10;;;;;;5025996;28;20197;-44
2022/07/26 06:54:24;;;;;;;3.73;2.40;;;29.00;47.90;;;;;;5029650;28;20201;-44
2022/07/26 06:56:50;;;;;;;5.47;2.00;;;29.00;47.70;;;;;;5030840;28;20193;-43
2022/07/26 06:59:16;;;;;;;2.63;1.70;;;29.00;47.60;;;;;;5030133;28;20680;-42
2022/07/26 07:01:41;;;;;;;2.43;2.07;;;29.00;47.20;;;;;;5031009;28;20220;-43
2022/07/26 07:04:07;;;;;;;4.40;1.83;;;29.00;47.20;;;;;;5030688;28;20193;-43
2022/07/26 07:06:32;;;;;;;8.20;2.10;;;29.00;46.80;;;;;;5028711;28;20604;-43
2022/07/26 07:08:58;;;;;;;2.53;2.33;;;29.10;46.70;;;;;;5034232;28;20190;-43
2022/07/26 07:11:23;;;;;;;2.20;1.70;;;29.10;46.40;;;;;;5034859;28;20204;-44
2022/07/26 07:13:49;;;;;;;2.27;2.00;;;29.20;46.00;;;;;;5030346;28;20629;-44
2022/07/26 07:16:15;;;;;;;4.83;2.07;;;29.20;46.10;;;;;;5031243;28;20242;-42
2022/07/26 07:18:40;;;;;;;6.63;2.77;;;29.20;45.70;;;;;;5032071;28;20198;-43
2022/07/26 07:21:06;;;;;;;2.33;1.80;;;29.30;44.80;;;;;;5025823;28;20221;-44
2022/07/26 07:23:32;;;;;;;12.07;2.00;;;29.30;44.30;;;;;;5031257;28;20248;-44
2022/07/26 07:25:58;;;;;;;4.40;2.20;;;29.30;43.20;;;;;;5025935;28;20548;-43
2022/07/26 07:28:24;;;;;;;5.43;2.73;;;29.30;43.10;;;;;;5036479;28;20447;-44
2022/07/26 07:30:49;;;;;;;1.70;1.50;;;29.30;43.00;;;;;;5034983;28;20431;-42
2022/07/26 07:33:16;;;;;;;3.30;1.40;;;29.40;42.30;;;;;;5029685;28;20189;-42
2022/07/26 07:35:42;;;;;;;6.20;1.90;;;29.40;42.70;;;;;;5029668;28;20280;-43
2022/07/26 07:38:08;;;;;;;3.60;1.90;;;29.50;42.60;;;;;;5032374;28;20436;-42
2022/07/26 07:40:34;;;;;;;4.33;1.80;;;29.50;42.40;;;;;;5028420;28;20494;-42
2022/07/26 07:43:01;;;;;;;2.10;1.90;;;29.60;42.60;;;;;;5028440;28;20566;-43
2022/07/26 07:45:27;;;;;;;2.53;1.70;;;29.60;41.20;;;;;;5022273;28;20440;-43
2022/07/26 07:47:53;;;;;;;2.17;1.60;;;29.70;40.80;;;;;;5029707;28;20815;-43
2022/07/26 07:50:18;;;;;;;1.70;1.57;;;29.70;40.40;;;;;;5030379;28;20485;-42
2022/07/26 07:52:44;;;;;;;1.60;1.40;;;29.70;40.40;;;;;;5028595;28;20665;-42
2022/07/26 07:55:10;;;;;;;2.07;1.60;;;29.80;40.90;;;;;;5032023;28;20197;-45
2022/07/26 07:57:35;;;;;;;5.30;1.97;;;29.80;40.40;;;;;;5031370;28;20304;-44
2022/07/26 08:00:03;;;;;;;3.20;2.00;;;29.80;40.30;;;;;;5031903;28;20217;-43
2022/07/26 08:02:29;;;;;;;3.23;1.87;;;29.80;39.80;;;;;;5028005;28;20201;-44
2022/07/26 08:04:55;;;;;;;2.40;2.13;;;29.80;39.00;;;;;;5030773;28;20451;-44
2022/07/26 08:07:20;;;;;;;3.87;1.80;;;29.70;37.30;;;;;;5039095;28;20193;-44
2022/07/26 08:09:46;;;;;;;4.00;1.80;;;29.50;37.90;;;;;;5030980;28;20903;-43
2022/07/26 08:12:11;;;;;;;3.73;1.50;;;29.60;38.60;;;;;;5031408;28;20185;-44
2022/07/26 08:14:37;;;;;;;2.13;1.40;;;29.70;38.40;;;;;;5035165;28;20206;-44
2022/07/26 08:17:03;;;;;;;2.30;1.73;;;29.80;37.40;;;;;;5033775;28;20636;-43
2022/07/26 08:19:28;;;;;;;1.77;1.17;;;29.80;37.20;;;;;;5035042;28;20730;-43
2022/07/26 08:21:54;;;;;;;1.60;1.10;;;29.80;37.20;;;;;;5029539;28;20197;-43
2022/07/26 08:24:19;;;;;;;2.77;1.50;;;29.70;37.30;;;;;;5029480;28;20197;-44
2022/07/26 08:26:45;;;;;;;4.20;1.67;;;29.70;37.20;;;;;;5026550;28;20224;-47
2022/07/26 08:29:11;;;;;;;2.90;1.20;;;29.70;36.90;;;;;;5029164;28;20193;-44
2022/07/26 08:31:36;;;;;;;1.80;1.70;;;29.60;36.60;;;;;;5029995;28;20813;-47
2022/07/26 08:34:02;;;;;;;5.30;1.60;;;29.70;36.70;;;;;;5031973;28;20251;-46
2022/07/26 08:36:28;;;;;;;2.27;1.10;;;29.80;36.70;;;;;;5030477;28;20672;-46
2022/07/26 08:38:53;;;;;;;1.43;1.33;;;29.90;36.60;;;;;;5033748;28;20197;-47
2022/07/26 08:41:19;;;;;;;4.93;1.27;;;30.00;36.60;;;;;;5027100;28;20704;-46
2022/07/26 08:43:45;;;;;;;1.87;1.40;;;30.00;35.90;;;;;;5030567;28;20756;-47
2022/07/26 08:46:11;;;;;;;3.17;1.60;;;29.90;36.20;;;;;;5030466;28;20221;-47
2022/07/26 08:48:38;;;;;;;2.87;1.00;;;29.90;36.20;;;;;;5031685;28;20490;-48
2022/07/26 08:51:07;;;;;;;2.13;1.17;;;30.00;35.90;;;;;;5029313;28;20203;-48
2022/07/26 08:53:36;;;;;;;1.60;1.20;;;30.20;35.60;;;;;;5016098;28;20440;-47
2022/07/26 08:56:02;;;;;;;2.37;1.30;;;30.40;35.70;;;;;;5027526;28;20863;-48
2022/07/26 08:58:30;;;;;;;3.97;1.30;;;30.50;36.00;;;;;;5029751;28;20798;-46
2022/07/26 09:01:04;;;;;;;1.93;1.20;;;30.70;34.90;;;;;;5027844;28;20534;-45
2022/07/26 09:03:30;;;;;;;2.67;1.40;;;30.70;34.50;;;;;;5027989;28;20995;-43
2022/07/26 09:05:59;;;;;;;6.73;1.30;;;30.70;34.10;;;;;;5032355;28;20451;-44
2022/07/26 09:08:28;;;;;;;1.53;1.13;;;30.60;34.10;;;;;;5029227;28;20468;-46
2022/07/26 09:10:55;;;;;;;2.97;1.43;;;30.70;34.20;;;;;;5027139;28;20445;-45
2022/07/26 09:13:22;;;;;;;2.60;1.50;;;30.90;34.10;;;;;;5026624;28;20439;-44
2022/07/26 09:16:06;;;;;;;1.40;1.30;;;30.80;34.20;;;;;;5034862;28;20483;-44
2022/07/26 09:18:32;;;;;;;2.30;1.23;;;30.70;34.10;;;;;;5028499;28;20836;-43
2022/07/26 09:20:58;;;;;;;2.50;1.30;;;30.80;34.10;;;;;;5027577;28;20587;-44
2022/07/26 09:23:23;;;;;;;2.37;1.30;;;30.90;33.60;;;;;;5027852;28;20225;-44
2022/07/26 09:25:49;;;;;;;4.53;1.33;;;30.80;33.90;;;;;;5025141;28;20220;-44
2022/07/26 09:28:29;;;;;;;2.60;1.40;;;30.70;33.80;;;;;;5032142;28;20192;-45
2022/07/26 09:31:02;;;;;;;1.63;1.00;;;30.90;33.90;;;;;;5026410;28;20196;-44
2022/07/26 09:33:48;;;;;;;4.00;1.50;;;30.90;33.60;;;;;;5022680;28;20872;-44
2022/07/26 09:36:15;;;;;;;2.83;1.17;;;30.90;34.10;;;;;;5017430;28;21206;-44
2022/07/26 09:38:42;;;;;;;1.63;1.50;;;31.00;34.30;;;;;;5026053;28;20444;-44
2022/07/26 09:41:18;;;;;;;3.07;1.17;;;31.10;34.00;;;;;;5023952;28;20527;-44
2022/07/26 09:43:44;;;;;;;1.70;1.43;;;31.30;33.40;;;;;;5028663;28;20538;-46
2022/07/26 09:46:10;;;;;;;1.70;1.40;;;31.20;33.40;;;;;;5023730;28;20593;-43
2022/07/26 09:48:38;;;;;;;2.50;1.20;;;31.00;33.40;;;;;;5027853;28;20604;-44
2022/07/26 09:51:05;;;;;;;1.77;1.30;;;31.10;33.70;;;;;;5020337;28;20252;-43
2022/07/26 09:53:39;;;;;;;3.80;1.40;;;31.10;33.60;;;;;;5027392;28;20447;-44
2022/07/26 09:56:06;;;;;;;1.60;1.50;;;30.90;33.20;;;;;;5023558;28;20448;-46
2022/07/26 09:58:32;;;;;;;2.97;1.30;;;30.80;34.00;;;;;;5023901;28;20443;-44
2022/07/26 10:00:57;;;;;;;3.47;1.33;;;30.80;33.00;;;;;;5024206;28;20834;-44
2022/07/26 10:03:23;;;;;;;1.30;1.07;;;30.70;33.00;;;;;;5016240;28;20517;-43
2022/07/26 10:05:49;;;;;;;6.83;1.00;;;30.90;33.00;;;;;;5023266;28;20192;-43
2022/07/26 10:08:16;;;;;;;1.83;1.23;;;30.90;33.10;;;;;;5027809;28;20189;-44
2022/07/26 10:11:06;;;;;;;2.30;1.20;;;31.00;33.30;;;;;;5025974;28;20190;-44
2022/07/26 10:13:31;;;;;;;5.63;1.33;;;31.30;32.90;;;;;;5031379;28;20866;-43
2022/07/26 10:15:57;;;;;;;3.40;1.30;;;31.30;32.90;;;;;;5035862;28;20530;-44
2022/07/26 10:18:35;;;;;;;1.37;1.27;;;31.20;33.20;;;;;;5030904;28;20544;-44
2022/07/26 10:21:20;;;;;;;1.90;1.30;;;31.20;33.10;;;;;;5029274;28;20260;-43
2022/07/26 10:23:59;;;;;;;1.37;1.20;;;31.10;33.20;;;;;;5021898;28;20993;-44
2022/07/26 10:26:30;;;;;;;2.30;1.30;;;31.20;33.10;;;;;;5019938;28;20463;-43
2022/07/26 10:29:15;;;;;;;3.60;1.60;;;31.20;33.20;;;;;;5026846;28;20447;-46
2022/07/26 10:31:59;;;;;;;1.30;1.20;;;31.30;33.10;;;;;;5031592;28;20490;-44
2022/07/26 10:34:30;;;;;;;2.30;1.33;;;31.20;33.00;;;;;;5022950;28;20456;-44
2022/07/26 10:37:01;;;;;;;5.20;1.50;;;31.10;33.00;;;;;;5030468;28;20475;-44
2022/07/26 10:39:27;;;;;;;2.43;1.17;;;31.10;33.30;;;;;;5027030;28;20484;-44
2022/07/26 10:42:05;;;;;;;1.57;1.47;;;31.20;33.00;;;;;;5029156;28;20442;-45
2022/07/26 10:44:38;;;;;;;1.57;1.40;;;31.40;33.50;;;;;;5022728;28;20448;-44
2022/07/26 10:47:06;;;;;;;3.70;1.43;;;31.50;33.20;;;;;;5026213;28;20444;-45
2022/07/26 10:49:37;;;;;;;2.60;1.10;;;31.70;32.50;;;;;;5025600;28;21269;-44
2022/07/26 10:52:09;;;;;;;2.60;1.73;;;31.80;32.30;;;;;;5060878;28;20456;-44
2022/07/26 10:54:59;;;;;;;3.17;1.60;;;31.80;32.70;;;;;;5029337;28;20472;-45
2022/07/26 10:57:28;;;;;;;2.60;1.03;;;31.80;32.40;;;;;;5031855;28;20495;-44
2022/07/26 10:59:56;;;;;;;1.23;1.13;;;31.80;32.30;;;;;;5032998;28;20608;-44
2022/07/26 11:02:27;;;;;;;1.63;1.17;;;32.00;32.30;;;;;;5030948;28;21080;-45
2022/07/26 11:05:20;;;;;;;1.40;1.10;;;32.10;31.80;;;;;;5027280;28;20510;-44
2022/07/26 11:08:07;;;;;;;1.63;1.00;;;32.40;31.50;;;;;;5025663;28;20510;-45
2022/07/26 11:10:40;;;;;;;2.27;1.30;;;32.20;31.20;;;;;;5030508;28;20455;-44
2022/07/26 11:13:11;;;;;;;1.70;1.33;;;32.20;31.50;;;;;;5030776;28;20467;-45
2022/07/26 11:15:40;;;;;;;1.33;1.23;;;32.40;30.90;;;;;;5029020;28;20444;-44
2022/07/26 11:18:15;;;;;;;2.13;1.20;;;32.40;30.50;;;;;;5026161;28;20459;-44
2022/07/26 11:20:42;;;;;;;1.30;0.93;;;32.50;30.70;;;;;;5030862;28;20494;-45
2022/07/26 11:23:25;;;;;;;2.40;1.30;;;32.50;30.50;;;;;;5023428;28;21054;-44
2022/07/26 11:26:07;;;;;;;3.03;1.40;;;32.60;30.40;;;;;;5025280;28;20451;-45
2022/07/26 11:28:52;;;;;;;1.30;1.20;;;32.50;30.60;;;;;;5029212;28;20462;-45
2022/07/26 11:31:19;;;;;;;2.40;1.20;;;32.50;30.10;;;;;;5030448;28;20459;-46
2022/07/26 11:33:49;;;;;;;2.03;1.30;;;32.70;30.50;;;;;;5030914;28;20456;-45
2022/07/26 11:36:15;;;;;;;1.83;1.00;;;32.70;30.30;;;;;;5030499;28;20951;-48
2022/07/26 11:38:53;;;;;;;1.20;1.10;;;32.90;30.90;;;;;;5028384;28;20539;-46
2022/07/26 11:41:24;;;;;;;1.40;1.27;;;32.80;30.00;;;;;;5021247;28;20490;-44
2022/07/26 11:43:51;;;;;;;2.13;1.07;;;32.90;29.60;;;;;;5029704;28;20452;-46
2022/07/26 11:46:19;;;;;;;1.63;1.10;;;33.00;29.20;;;;;;5025126;28;20487;-46
2022/07/26 11:48:48;;;;;;;3.10;1.10;;;33.00;29.10;;;;;;5027243;28;20999;-47
2022/07/26 11:51:22;;;;;;;2.07;1.73;;;33.30;29.10;;;;;;5030295;28;20448;-47
2022/07/26 11:53:50;;;;;;;1.10;1.10;;;33.20;29.00;;;;;;5028094;28;20539;-47
2022/07/26 11:56:17;;;;;;;2.17;1.13;;;33.00;29.00;;;;;;5030185;28;20448;-45
2022/07/26 11:58:45;;;;;;;1.53;1.10;;;33.10;29.10;;;;;;5026935;28;20440;-46
2022/07/26 12:01:13;;;;;;;2.90;1.50;;;33.10;28.40;;;;;;5024148;28;20561;-45
2022/07/26 12:03:40;;;;;;;3.57;1.70;;;33.10;28.50;;;;;;5025004;28;21169;-48
2022/07/26 12:06:08;;;;;;;1.90;1.10;;;33.20;28.40;;;;;;5029448;28;20463;-49
2022/07/26 12:08:41;;;;;;;1.20;1.10;;;33.40;27.90;;;;;;5027472;28;21184;-46
2022/07/26 12:11:07;;;;;;;1.10;1.00;;;33.60;27.80;;;;;;5023808;28;20452;-44
2022/07/26 12:13:54;;;;;;;1.57;1.30;;;33.60;27.80;;;;;;5022613;28;20447;-44
2022/07/26 12:16:40;;;;;;;1.10;1.00;;;33.80;27.90;;;;;;5023581;28;20199;-44
2022/07/26 12:19:28;;;;;;;1.83;1.17;;;33.70;27.90;;;;;;5022192;28;20970;-44
2022/07/26 12:21:54;;;;;;;7.23;2.50;;;33.60;27.90;;;;;;5028269;28;20498;-44
2022/07/26 12:24:34;;;;;;;3.17;1.10;;;33.50;27.60;;;;;;5028494;28;20923;-45
2022/07/26 12:27:12;;;;;;;3.70;1.17;;;33.40;27.10;;;;;;5030097;28;20196;-46
2022/07/26 12:29:40;;;;;;;3.20;1.30;;;33.30;27.40;;;;;;5030035;28;20431;-44
2022/07/26 12:32:08;;;;;;;1.23;1.13;;;33.10;27.50;;;;;;5030763;28;20416;-46
2022/07/26 12:34:35;;;;;;;2.60;1.27;;;33.20;27.90;;;;;;5029537;28;20438;-46
2022/07/26 12:37:06;;;;;;;2.70;1.13;;;33.40;27.50;;;;;;5028983;28;20567;-46
2022/07/26 12:39:32;;;;;;;1.50;1.40;;;33.60;27.40;;;;;;5033184;28;20476;-44
2022/07/26 12:41:58;;;;;;;1.40;1.20;;;33.80;27.00;;;;;;5028944;28;20427;-46
2022/07/26 12:44:23;;;;;;;1.90;0.90;;;34.00;27.00;;;;;;5028001;28;20225;-44
2022/07/26 12:46:49;;;;;;;1.43;1.27;;;34.20;27.40;;;;;;5025279;28;20719;-44
2022/07/26 12:49:14;;;;;;;2.43;1.00;;;34.20;26.00;;;;;;5028807;28;20221;-44
2022/07/26 12:51:40;;;;;;;6.83;1.23;;;34.20;26.10;;;;;;5030043;28;20193;-45
2022/07/26 12:54:06;;;;;;;1.83;1.00;;;34.40;26.20;;;;;;5029798;28;20225;-44